Cockrell Hill, Texas
Current Conditions -  °F | °C
As of 2:53 PM on Thursday 27 Nov 2014 (Local Time) from KRBD Reporting Station
Clear Clear  
Wind Chill: 16°   Ceiling: Unl
Heat Index: 16°   Visibility: 10mi
Dew Point: -8°   Wind: 3mph
Humidity: 20%   Direction: 80°E
Pressure: 30.42"   Gusts: NA
Location:  32.7371°N, 96.9045°W
Report Text: KRBD 272053Z 08003KT 10SM CLR 16/M08 A3042 RMK AO2 SLP300 T01561078 56027
Loading
Personal Weather Stations






























Interactive Weather Map New forecast layout! Learn more

10-Day Weather Forecast

Advertisements
Track Severe Weather on mobile